createdAt,value
2023-05-27T00:01:14.669Z,40.40
2023-05-27T00:03:41.761Z,40.40
2023-05-27T00:06:08.700Z,40.40
2023-05-27T00:08:35.650Z,40.40
2023-05-27T00:11:02.414Z,40.60
2023-05-27T00:13:29.360Z,40.30
2023-05-27T00:15:56.716Z,40.40
2023-05-27T00:18:23.829Z,40.40
2023-05-27T00:20:50.755Z,40.30
2023-05-27T00:23:17.666Z,40.50
2023-05-27T00:25:44.537Z,40.50
2023-05-27T00:28:13.192Z,40.50
2023-05-27T00:30:40.009Z,40.60
2023-05-27T00:33:06.885Z,40.60
2023-05-27T00:35:33.725Z,40.50
2023-05-27T00:38:00.747Z,40.80
2023-05-27T00:40:28.223Z,40.70
2023-05-27T00:42:55.019Z,40.80
2023-05-27T00:45:22.274Z,41.00
2023-05-27T00:47:50.377Z,40.90
2023-05-27T00:50:20.172Z,40.70
2023-05-27T00:52:47.163Z,40.80
2023-05-27T00:55:14.424Z,40.70
2023-05-27T00:57:41.578Z,40.90
2023-05-27T01:00:12.288Z,40.80
2023-05-27T01:02:41.898Z,41.00
2023-05-27T01:05:10.338Z,41.00
2023-05-27T01:07:55.301Z,40.80
2023-05-27T01:10:32.090Z,40.80
2023-05-27T01:13:15.788Z,40.90
2023-05-27T01:15:42.723Z,41.00
2023-05-27T01:18:10.675Z,41.10
2023-05-27T01:20:42.180Z,41.30
2023-05-27T01:23:09.882Z,41.00
2023-05-27T01:25:36.660Z,41.20
2023-05-27T01:28:03.697Z,41.40
2023-05-27T01:30:32.876Z,41.30
2023-05-27T01:33:14.007Z,41.20
2023-05-27T01:35:46.525Z,41.20
2023-05-27T01:38:18.771Z,41.40
2023-05-27T01:40:46.492Z,41.40
2023-05-27T01:43:14.928Z,41.30
2023-05-27T01:45:42.943Z,41.30
2023-05-27T01:48:10.704Z,41.30
2023-05-27T01:50:38.936Z,41.30
2023-05-27T01:53:07.300Z,41.20
2023-05-27T01:55:34.623Z,41.40
2023-05-27T01:58:01.692Z,41.60
2023-05-27T02:00:28.571Z,41.50
2023-05-27T02:02:56.785Z,41.40
2023-05-27T02:05:24.248Z,41.50
2023-05-27T02:07:51.376Z,41.50
2023-05-27T02:10:18.176Z,41.30
2023-05-27T02:12:45.103Z,41.40
2023-05-27T02:15:12.639Z,41.40
2023-05-27T02:17:40.026Z,41.40
2023-05-27T02:20:07.635Z,41.40
2023-05-27T02:22:36.068Z,41.50
2023-05-27T02:25:02.899Z,41.50
2023-05-27T02:27:29.646Z,41.60
2023-05-27T02:29:56.449Z,41.60
2023-05-27T02:32:23.327Z,41.70
2023-05-27T02:34:50.385Z,41.80
2023-05-27T02:37:17.475Z,41.50
2023-05-27T02:39:44.438Z,41.60
2023-05-27T02:42:11.813Z,41.60
2023-05-27T02:44:38.600Z,41.60
2023-05-27T02:47:05.579Z,41.60
2023-05-27T02:49:32.399Z,41.60
2023-05-27T02:51:59.374Z,41.70
2023-05-27T02:54:26.852Z,41.60
2023-05-27T02:56:53.639Z,41.60
2023-05-27T02:59:20.614Z,41.90
2023-05-27T03:01:47.511Z,41.70
2023-05-27T03:04:14.441Z,41.80
2023-05-27T03:06:41.571Z,41.60
2023-05-27T03:09:10.353Z,41.90
2023-05-27T03:11:37.206Z,42.00
2023-05-27T03:14:04.040Z,41.90
2023-05-27T03:16:31.268Z,41.90
2023-05-27T03:18:58.166Z,42.00
2023-05-27T03:21:25.040Z,41.80
2023-05-27T03:23:52.387Z,41.80
2023-05-27T03:26:19.296Z,42.00
2023-05-27T03:28:46.391Z,42.00
2023-05-27T03:31:14.916Z,41.90
2023-05-27T03:33:51.666Z,41.80
2023-05-27T03:36:18.603Z,42.00
2023-05-27T03:38:45.472Z,42.10
2023-05-27T03:41:12.370Z,42.00
2023-05-27T03:43:40.357Z,42.00
2023-05-27T03:46:08.438Z,42.10
2023-05-27T03:48:35.608Z,42.30
2023-05-27T03:51:02.693Z,42.00
2023-05-27T03:53:31.074Z,42.00
2023-05-27T03:55:57.909Z,42.10
2023-05-27T03:58:24.697Z,42.10
2023-05-27T04:00:52.663Z,42.00
2023-05-27T04:03:19.824Z,42.00
2023-05-27T04:05:46.815Z,42.20
2023-05-27T04:08:14.297Z,42.20
2023-05-27T04:10:41.916Z,42.10
2023-05-27T04:13:08.743Z,42.20
2023-05-27T04:15:35.747Z,42.30
2023-05-27T04:18:02.702Z,42.20
2023-05-27T04:20:41.444Z,42.20
2023-05-27T04:23:08.906Z,42.30
2023-05-27T04:25:36.092Z,42.30
2023-05-27T04:28:06.787Z,42.30
2023-05-27T04:30:37.202Z,42.40
2023-05-27T04:33:12.257Z,42.30
2023-05-27T04:35:41.977Z,42.30
2023-05-27T04:38:08.926Z,42.20
2023-05-27T04:40:46.836Z,42.20
2023-05-27T04:43:30.669Z,42.20
2023-05-27T04:46:00.522Z,42.20
2023-05-27T04:48:28.036Z,42.20
2023-05-27T04:50:54.967Z,42.20
2023-05-27T04:53:22.475Z,42.40
2023-05-27T04:55:49.796Z,42.30
2023-05-27T04:58:17.035Z,42.20
2023-05-27T05:00:54.622Z,42.30
2023-05-27T05:03:23.808Z,42.30
2023-05-27T05:05:54.848Z,42.40
2023-05-27T05:08:22.919Z,42.40
2023-05-27T05:10:52.246Z,42.50
2023-05-27T05:13:19.449Z,42.40
2023-05-27T05:15:46.370Z,42.40
2023-05-27T05:18:14.267Z,42.40
2023-05-27T05:20:41.888Z,42.50
2023-05-27T05:23:12.510Z,42.40
2023-05-27T05:25:40.920Z,42.40
2023-05-27T05:28:08.364Z,42.50
2023-05-27T05:30:36.752Z,42.40
2023-05-27T05:33:04.713Z,42.40
2023-05-27T05:35:33.262Z,42.50
2023-05-27T05:38:17.937Z,42.60
2023-05-27T05:40:49.748Z,42.70
2023-05-27T05:43:17.664Z,42.80
2023-05-27T05:45:44.761Z,42.70
2023-05-27T05:48:11.721Z,42.70
2023-05-27T05:50:41.577Z,42.70
2023-05-27T05:53:10.199Z,42.60
2023-05-27T05:55:37.920Z,42.60
2023-05-27T05:58:05.067Z,42.70
2023-05-27T06:00:33.095Z,42.70
2023-05-27T06:03:20.050Z,42.70
2023-05-27T06:05:49.988Z,42.60
2023-05-27T06:08:17.210Z,42.70
2023-05-27T06:10:52.101Z,42.70
2023-05-27T06:13:19.423Z,42.80
2023-05-27T06:15:49.518Z,42.80
2023-05-27T06:18:17.240Z,42.80
2023-05-27T06:20:44.692Z,42.80
2023-05-27T06:23:11.566Z,42.80
2023-05-27T06:25:58.390Z,42.80
2023-05-27T06:28:27.465Z,43.00
2023-05-27T06:30:54.364Z,43.20
2023-05-27T06:33:21.505Z,43.70
2023-05-27T06:35:48.654Z,44.10
2023-05-27T06:38:15.891Z,44.30
2023-05-27T06:40:43.662Z,44.40
2023-05-27T06:43:11.433Z,44.40
2023-05-27T06:46:02.422Z,44.80
2023-05-27T06:48:41.217Z,44.90
2023-05-27T06:51:09.005Z,45.30
2023-05-27T06:53:36.130Z,45.30
2023-05-27T06:56:17.357Z,45.10
2023-05-27T06:59:02.460Z,45.20
2023-05-27T07:01:29.513Z,45.70
2023-05-27T07:04:01.008Z,45.50
2023-05-27T07:06:39.978Z,45.60
2023-05-27T07:09:06.936Z,46.10
2023-05-27T07:11:35.572Z,45.70
2023-05-27T07:14:11.268Z,45.60
2023-05-27T07:16:39.536Z,45.60
2023-05-27T07:19:08.184Z,46.30
2023-05-27T07:21:42.958Z,45.80
2023-05-27T07:24:15.585Z,46.00
2023-05-27T07:26:42.697Z,45.80
2023-05-27T07:29:10.221Z,46.00
2023-05-27T07:32:00.471Z,45.80
2023-05-27T07:34:31.848Z,45.50
2023-05-27T07:36:59.538Z,45.50
2023-05-27T07:39:26.371Z,45.30
2023-05-27T07:41:53.304Z,45.10
2023-05-27T07:44:20.554Z,45.50
2023-05-27T07:46:47.827Z,45.20
2023-05-27T07:49:15.764Z,45.80
2023-05-27T07:51:55.925Z,44.90
2023-05-27T07:54:23.338Z,45.20
2023-05-27T07:56:50.930Z,45.20
2023-05-27T07:59:18.492Z,45.40
2023-05-27T08:01:45.880Z,45.00
2023-05-27T08:04:24.129Z,44.70
2023-05-27T08:07:18.390Z,44.50
2023-05-27T08:09:53.349Z,44.70
2023-05-27T08:12:38.921Z,45.30
2023-05-27T08:15:20.718Z,45.00
2023-05-27T08:18:23.459Z,44.80
2023-05-27T08:21:06.914Z,44.60
2023-05-27T08:24:06.477Z,44.50
2023-05-27T08:26:53.169Z,44.70
2023-05-27T08:29:28.803Z,45.20
2023-05-27T08:32:14.469Z,45.30
2023-05-27T08:34:42.442Z,45.20
2023-05-27T08:37:09.799Z,44.10
2023-05-27T08:39:40.341Z,44.30
2023-05-27T08:42:16.979Z,44.10
2023-05-27T08:44:44.142Z,44.20
2023-05-27T08:47:11.031Z,44.10
2023-05-27T08:49:38.093Z,43.80
2023-05-27T08:52:05.132Z,43.30
2023-05-27T08:54:32.230Z,43.30
2023-05-27T08:57:01.481Z,42.90
2023-05-27T08:59:29.052Z,43.10
2023-05-27T09:01:57.191Z,43.40
2023-05-27T09:04:24.550Z,43.20
2023-05-27T09:06:51.540Z,43.30
2023-05-27T09:09:19.983Z,42.90
2023-05-27T09:11:46.817Z,43.00
2023-05-27T09:14:23.052Z,42.30
2023-05-27T09:16:50.147Z,42.10
2023-05-27T09:19:18.579Z,41.70
2023-05-27T09:21:45.582Z,41.50
2023-05-27T09:24:12.615Z,40.90
2023-05-27T09:26:39.804Z,40.70
2023-05-27T09:29:09.917Z,40.80
2023-05-27T09:31:43.406Z,40.90
2023-05-27T09:34:12.319Z,40.00
2023-05-27T09:36:49.245Z,40.00
2023-05-27T09:39:18.246Z,39.70
2023-05-27T09:41:45.166Z,40.00
2023-05-27T09:44:12.112Z,39.80
2023-05-27T09:46:40.113Z,40.00
2023-05-27T09:49:07.726Z,39.50
2023-05-27T09:51:34.825Z,39.50
2023-05-27T09:54:02.585Z,39.60
2023-05-27T09:56:30.476Z,38.90
2023-05-27T09:58:58.642Z,38.30
2023-05-27T10:01:29.473Z,38.40
2023-05-27T10:04:00.095Z,38.40
2023-05-27T10:06:27.914Z,38.80
2023-05-27T10:08:56.641Z,39.10
2023-05-27T10:11:23.751Z,38.70
2023-05-27T10:13:50.916Z,38.20
2023-05-27T10:16:22.644Z,38.50
2023-05-27T10:18:54.070Z,37.80
2023-05-27T10:21:24.887Z,38.00
2023-05-27T10:24:02.366Z,37.80
2023-05-27T10:26:44.124Z,37.50
2023-05-27T10:29:15.901Z,37.40
2023-05-27T10:31:52.928Z,37.20
2023-05-27T10:34:20.646Z,36.50
2023-05-27T10:36:47.936Z,36.80
2023-05-27T10:39:19.398Z,36.80
2023-05-27T10:41:53.269Z,37.00
2023-05-27T10:44:36.785Z,37.00
2023-05-27T10:47:11.936Z,35.90
2023-05-27T10:49:40.598Z,36.00
2023-05-27T10:52:12.143Z,35.60
2023-05-27T10:54:39.477Z,35.30
2023-05-27T10:57:07.196Z,35.60
2023-05-27T10:59:43.099Z,35.30
2023-05-27T11:02:09.995Z,34.70
2023-05-27T11:04:37.909Z,34.40
2023-05-27T11:07:05.647Z,34.60
2023-05-27T11:09:44.326Z,34.40
2023-05-27T11:12:23.464Z,33.60
2023-05-27T11:14:55.676Z,34.10
2023-05-27T11:17:23.775Z,33.50
2023-05-27T11:19:53.806Z,33.20
2023-05-27T11:22:21.862Z,33.10
2023-05-27T11:25:02.250Z,32.70
2023-05-27T11:27:36.948Z,32.40
2023-05-27T11:30:12.600Z,32.50
2023-05-27T11:32:42.677Z,32.80
2023-05-27T11:35:15.479Z,32.40
2023-05-27T11:37:42.402Z,32.30
2023-05-27T11:40:16.356Z,32.20
2023-05-27T11:42:50.034Z,31.70
2023-05-27T11:45:21.312Z,31.70
2023-05-27T11:47:51.968Z,31.70
2023-05-27T11:50:20.559Z,31.40
2023-05-27T11:52:58.985Z,31.40
2023-05-27T11:55:26.031Z,31.10
2023-05-27T11:57:53.048Z,31.30
2023-05-27T12:00:20.729Z,30.40
2023-05-27T12:02:47.694Z,30.60
2023-05-27T12:05:22.209Z,30.50
2023-05-27T12:07:59.773Z,30.10
2023-05-27T12:10:26.573Z,29.70
2023-05-27T12:12:53.503Z,29.60
2023-05-27T12:15:20.454Z,29.90
2023-05-27T12:17:47.293Z,30.00
2023-05-27T12:20:14.259Z,30.20
2023-05-27T12:22:41.255Z,29.80
2023-05-27T12:25:08.521Z,29.60
2023-05-27T12:27:35.416Z,29.60
2023-05-27T12:30:02.300Z,29.70
2023-05-27T12:32:29.175Z,29.50
2023-05-27T12:34:56.029Z,28.40
2023-05-27T12:37:22.962Z,28.60
2023-05-27T12:39:49.881Z,29.00
2023-05-27T12:42:16.760Z,29.50
2023-05-27T12:44:43.635Z,29.00
2023-05-27T12:47:10.691Z,28.60
2023-05-27T12:49:37.888Z,28.50
2023-05-27T12:52:04.871Z,28.90
2023-05-27T12:54:31.901Z,29.40
2023-05-27T12:56:58.763Z,29.40
2023-05-27T12:59:25.555Z,29.70
2023-05-27T13:01:53.129Z,29.60
2023-05-27T13:04:19.997Z,29.60
2023-05-27T13:06:46.883Z,29.80
2023-05-27T13:09:15.051Z,29.40
2023-05-27T13:11:41.839Z,28.90
2023-05-27T13:14:09.224Z,29.10
2023-05-27T13:16:36.166Z,28.90
2023-05-27T13:19:03.119Z,28.80
2023-05-27T13:21:30.052Z,29.30
2023-05-27T13:23:56.974Z,29.10
2023-05-27T13:26:24.564Z,29.00
2023-05-27T13:28:51.425Z,28.90
2023-05-27T13:31:18.472Z,28.70
2023-05-27T13:33:45.383Z,28.80
2023-05-27T13:36:12.539Z,29.00
2023-05-27T13:38:39.374Z,28.50
2023-05-27T13:41:06.867Z,28.50
2023-05-27T13:43:33.703Z,28.80
2023-05-27T13:46:01.071Z,28.40
2023-05-27T13:48:27.897Z,27.50
2023-05-27T13:50:54.767Z,27.50
2023-05-27T13:53:21.544Z,28.30
2023-05-27T13:55:48.383Z,27.90
2023-05-27T13:58:15.247Z,28.20
2023-05-27T14:00:42.217Z,28.10
2023-05-27T14:03:09.012Z,28.10
2023-05-27T14:05:36.890Z,27.50
2023-05-27T14:08:04.682Z,27.70
2023-05-27T14:10:34.079Z,27.50
2023-05-27T14:13:00.819Z,27.70
2023-05-27T14:15:29.298Z,27.70
2023-05-27T14:17:56.601Z,27.70
2023-05-27T14:20:23.469Z,27.30
2023-05-27T14:22:50.325Z,28.20
2023-05-27T14:25:17.922Z,28.10
2023-05-27T14:27:44.697Z,28.30
2023-05-27T14:30:11.833Z,28.20
2023-05-27T14:32:38.635Z,28.10
2023-05-27T14:35:05.934Z,27.90
2023-05-27T14:37:32.763Z,27.70
2023-05-27T14:39:59.600Z,27.40
2023-05-27T14:42:27.027Z,27.50
2023-05-27T14:44:53.939Z,27.50
2023-05-27T14:47:22.845Z,28.00
2023-05-27T14:49:49.759Z,28.10
2023-05-27T14:52:16.500Z,27.80
2023-05-27T14:54:43.270Z,27.70
2023-05-27T14:57:10.035Z,27.60
2023-05-27T14:59:36.831Z,27.40
2023-05-27T15:02:03.640Z,28.10
2023-05-27T15:04:30.387Z,27.90
2023-05-27T15:06:57.128Z,28.20
2023-05-27T15:09:23.959Z,28.00
2023-05-27T15:11:50.810Z,28.10
2023-05-27T15:14:17.637Z,27.80
2023-05-27T15:16:44.429Z,28.30
2023-05-27T15:19:11.332Z,28.10
2023-05-27T15:21:38.099Z,28.60
2023-05-27T15:24:04.907Z,29.20
2023-05-27T15:26:32.029Z,28.20
2023-05-27T15:28:58.898Z,28.70
2023-05-27T15:31:25.810Z,29.30
2023-05-27T15:33:54.040Z,28.70
2023-05-27T15:36:20.904Z,28.30
2023-05-27T15:38:47.654Z,28.30
2023-05-27T15:41:14.544Z,29.10
2023-05-27T15:43:41.401Z,28.70
2023-05-27T15:46:08.876Z,30.00
2023-05-27T15:48:35.825Z,28.60
2023-05-27T15:51:02.693Z,28.80
2023-05-27T15:53:29.488Z,29.10
2023-05-27T15:55:56.361Z,29.10
2023-05-27T15:58:23.182Z,29.00
2023-05-27T16:00:50.049Z,29.20
2023-05-27T16:03:17.905Z,29.10
2023-05-27T16:05:44.858Z,29.90
2023-05-27T16:08:11.794Z,30.00
2023-05-27T16:10:46.417Z,30.00
2023-05-27T16:13:13.563Z,30.00
2023-05-27T16:15:40.413Z,30.10
2023-05-27T16:18:07.217Z,30.00
2023-05-27T16:20:34.121Z,29.90
2023-05-27T16:23:01.188Z,29.90
2023-05-27T16:25:27.948Z,29.80
2023-05-27T16:27:54.702Z,30.30
2023-05-27T16:30:21.699Z,30.00
2023-05-27T16:32:48.503Z,30.00
2023-05-27T16:35:15.443Z,30.70
2023-05-27T16:37:42.213Z,30.20
2023-05-27T16:40:09.598Z,30.30
2023-05-27T16:42:36.667Z,30.00
2023-05-27T16:45:04.727Z,30.10
2023-05-27T16:47:31.510Z,30.60
2023-05-27T16:49:58.370Z,31.10
2023-05-27T16:52:25.130Z,31.10
2023-05-27T16:54:52.116Z,31.20
2023-05-27T16:57:18.950Z,30.90
2023-05-27T16:59:45.857Z,31.80
2023-05-27T17:02:14.062Z,31.70
2023-05-27T17:04:40.802Z,31.80
2023-05-27T17:07:11.583Z,31.40
2023-05-27T17:09:38.455Z,31.40
2023-05-27T17:12:10.071Z,31.50
2023-05-27T17:14:37.232Z,31.50
2023-05-27T17:17:04.198Z,32.70
2023-05-27T17:19:31.043Z,32.80
2023-05-27T17:21:57.868Z,32.20
2023-05-27T17:24:24.629Z,32.00
2023-05-27T17:26:51.387Z,32.40
2023-05-27T17:29:19.115Z,32.00
2023-05-27T17:31:46.246Z,32.50
2023-05-27T17:34:13.049Z,32.00
2023-05-27T17:36:39.803Z,32.30
2023-05-27T17:39:06.652Z,32.30
2023-05-27T17:41:33.519Z,32.60
2023-05-27T17:44:00.377Z,32.80
2023-05-27T17:46:27.213Z,33.30
2023-05-27T17:48:54.043Z,33.20
2023-05-27T17:51:20.841Z,33.60
2023-05-27T17:53:51.449Z,33.90
2023-05-27T17:56:18.219Z,33.50
2023-05-27T17:58:44.992Z,33.60
2023-05-27T18:01:11.903Z,33.70
2023-05-27T18:03:38.832Z,34.30
2023-05-27T18:06:08.642Z,34.80
2023-05-27T18:08:36.119Z,34.20
2023-05-27T18:11:03.693Z,33.80
2023-05-27T18:13:30.561Z,34.10
2023-05-27T18:15:57.421Z,34.50
2023-05-27T18:18:24.204Z,34.30
2023-05-27T18:20:53.853Z,34.60
2023-05-27T18:23:20.906Z,35.40
2023-05-27T18:25:47.627Z,35.60
2023-05-27T18:28:14.443Z,35.80
2023-05-27T18:30:41.714Z,35.50
2023-05-27T18:33:08.630Z,35.70
2023-05-27T18:35:36.494Z,36.20
2023-05-27T18:38:04.869Z,36.60
2023-05-27T18:40:33.764Z,36.70
2023-05-27T18:43:02.856Z,36.80
2023-05-27T18:45:51.965Z,37.30
2023-05-27T18:48:19.209Z,37.20
2023-05-27T18:50:47.488Z,37.50
2023-05-27T18:53:14.863Z,37.80
2023-05-27T18:55:41.774Z,37.60
2023-05-27T18:58:09.144Z,37.80
2023-05-27T19:00:36.219Z,38.00
2023-05-27T19:03:05.654Z,38.10
2023-05-27T19:05:32.949Z,38.10
2023-05-27T19:07:59.986Z,38.10
2023-05-27T19:10:26.907Z,38.40
2023-05-27T19:12:53.980Z,38.40
2023-05-27T19:15:21.260Z,38.70
2023-05-27T19:17:48.401Z,38.70
2023-05-27T19:20:15.540Z,38.90
2023-05-27T19:22:42.760Z,39.10
2023-05-27T19:25:09.730Z,39.20
2023-05-27T19:27:36.589Z,39.30
2023-05-27T19:30:04.693Z,39.30
2023-05-27T19:32:31.562Z,39.30
2023-05-27T19:34:58.381Z,39.30
2023-05-27T19:37:25.410Z,39.60
2023-05-27T19:39:54.267Z,39.70
2023-05-27T19:42:21.233Z,39.80
2023-05-27T19:44:48.097Z,39.80
2023-05-27T19:47:15.054Z,40.00
2023-05-27T19:49:41.974Z,40.10
2023-05-27T19:52:08.789Z,40.30
2023-05-27T19:54:36.030Z,40.40
2023-05-27T19:57:02.959Z,40.40
2023-05-27T19:59:29.824Z,40.50
2023-05-27T20:01:56.727Z,40.60
2023-05-27T20:04:23.497Z,40.60
2023-05-27T20:06:50.329Z,40.70
2023-05-27T20:09:17.274Z,40.70
2023-05-27T20:11:44.680Z,40.80
2023-05-27T20:14:11.593Z,40.90
2023-05-27T20:16:38.549Z,41.00
2023-05-27T20:19:05.426Z,40.90
2023-05-27T20:21:32.273Z,40.90
2023-05-27T20:24:01.600Z,40.80
2023-05-27T20:26:29.756Z,40.80
2023-05-27T20:28:56.615Z,41.00
2023-05-27T20:31:23.964Z,41.10
2023-05-27T20:33:51.144Z,41.00
2023-05-27T20:36:18.008Z,41.10
2023-05-27T20:38:44.787Z,41.20
2023-05-27T20:41:11.609Z,41.30
2023-05-27T20:43:38.664Z,41.40
2023-05-27T20:46:07.226Z,41.40
2023-05-27T20:48:34.227Z,41.60
2023-05-27T20:51:01.094Z,41.60
2023-05-27T20:53:28.057Z,41.70
2023-05-27T20:55:54.812Z,41.80
2023-05-27T20:58:21.676Z,41.80
2023-05-27T21:00:48.556Z,41.90
2023-05-27T21:03:15.770Z,41.90
2023-05-27T21:05:43.020Z,42.00
2023-05-27T21:08:09.845Z,42.00
2023-05-27T21:10:36.720Z,42.10
2023-05-27T21:13:03.559Z,42.20
2023-05-27T21:15:30.384Z,42.20
2023-05-27T21:17:57.334Z,42.20
2023-05-27T21:20:24.200Z,42.30
2023-05-27T21:22:51.077Z,42.30
2023-05-27T21:25:17.967Z,42.40
2023-05-27T21:27:44.941Z,42.50
2023-05-27T21:30:12.334Z,42.60
2023-05-27T21:32:39.126Z,42.70
2023-05-27T21:35:06.873Z,42.70
2023-05-27T21:37:33.740Z,42.70
2023-05-27T21:40:00.505Z,42.80
2023-05-27T21:42:27.303Z,42.80
2023-05-27T21:44:54.107Z,42.90
2023-05-27T21:47:22.845Z,43.60
2023-05-27T21:49:49.843Z,43.10
2023-05-27T21:52:16.764Z,43.10
2023-05-27T21:54:43.716Z,43.30
2023-05-27T21:57:10.539Z,43.40
2023-05-27T21:59:37.421Z,43.50
2023-05-27T22:02:04.520Z,43.60
2023-05-27T22:04:32.090Z,43.60
2023-05-27T22:06:58.952Z,43.70
2023-05-27T22:09:25.759Z,43.80
2023-05-27T22:11:52.553Z,43.90
2023-05-27T22:14:19.482Z,44.00
2023-05-27T22:16:46.391Z,44.10
2023-05-27T22:19:13.291Z,44.10
2023-05-27T22:21:40.058Z,44.20
2023-05-27T22:24:07.022Z,44.40
2023-05-27T22:26:35.444Z,44.40
2023-05-27T22:29:03.410Z,44.50
2023-05-27T22:31:31.178Z,44.50
2023-05-27T22:33:58.779Z,44.60
2023-05-27T22:36:25.560Z,44.60
2023-05-27T22:38:52.396Z,44.70
2023-05-27T22:41:19.543Z,44.70
2023-05-27T22:43:46.469Z,44.80
2023-05-27T22:46:17.302Z,44.90
2023-05-27T22:48:44.643Z,45.00
2023-05-27T22:51:12.064Z,45.10
2023-05-27T22:53:43.795Z,45.20
2023-05-27T22:56:12.184Z,45.20
2023-05-27T22:58:39.718Z,45.40
2023-05-27T23:01:06.972Z,45.50
2023-05-27T23:03:34.337Z,45.70
2023-05-27T23:06:01.383Z,45.80
2023-05-27T23:08:28.282Z,45.80
2023-05-27T23:10:55.364Z,46.50
2023-05-27T23:13:22.273Z,46.00
2023-05-27T23:15:49.057Z,46.10
2023-05-27T23:18:15.888Z,46.10
2023-05-27T23:20:43.808Z,46.20
2023-05-27T23:23:10.950Z,46.30
2023-05-27T23:25:37.728Z,46.20
2023-05-27T23:28:07.011Z,46.30
2023-05-27T23:30:34.018Z,46.30
2023-05-27T23:33:01.075Z,46.30
2023-05-27T23:35:28.075Z,46.30
2023-05-27T23:37:54.924Z,46.30
2023-05-27T23:40:22.644Z,46.20
2023-05-27T23:42:49.759Z,46.00
2023-05-27T23:45:16.844Z,45.90
2023-05-27T23:47:43.822Z,45.80
2023-05-27T23:50:12.284Z,45.70
2023-05-27T23:52:39.651Z,45.60
2023-05-27T23:55:06.919Z,45.40
2023-05-27T23:57:33.954Z,45.40
